Time,TemperatureF,DewpointF,PressureIn,WindDirection,WindDirectionDegrees,WindSpeedMPH,WindSpeedGustMPH,Humidity,HourlyPrecipIn,Conditions,Clouds,dailyrainin,SoftwareType,DateUTC
2013-04-29 00:14:00,48.9,15.0,29.63,NNE,32,2.0,-999.0,26,-99.99,,,0.00,weatherlink.com 1.10,2013-04-29 06:14:00,
2013-04-29 00:29:00,48.3,15.0,29.63,NNE,32,3.0,-999.0,26,-99.99,,,0.00,weatherlink.com 1.10,2013-04-29 06:29:00,
2013-04-29 00:45:00,47.9,15.0,29.63,NNE,32,2.0,-999.0,27,-99.99,,,0.00,weatherlink.com 1.10,2013-04-29 06:45:00,
2013-04-29 01:00:00,46.8,15.0,29.63,NNE,32,0.0,-999.0,28,-99.99,,,0.00,weatherlink.com 1.10,2013-04-29 07:00:00,
2013-04-29 01:15:00,46.1,15.0,29.63,NNE,30,6.0,-999.0,29,-99.99,,,0.00,weatherlink.com 1.10,2013-04-29 07:15:00,
2013-04-29 01:30:00,44.9,14.0,29.64,NNE,30,2.0,-999.0,29,-99.99,,,0.00,weatherlink.com 1.10,2013-04-29 07:30:00,
2013-04-29 01:45:00,44.5,15.0,29.63,NNE,30,3.0,-999.0,30,-99.99,,,0.00,weatherlink.com 1.10,2013-04-29 07:45:00,
2013-04-29 02:00:00,44.5,15.0,29.63,NNE,30,2.0,-999.0,30,-99.99,,,0.00,weatherlink.com 1.10,2013-04-29 08:00:00,
2013-04-29 02:15:00,43.3,15.0,29.64,NNE,30,0.0,-999.0,32,-99.99,,,0.00,weatherlink.com 1.10,2013-04-29 08:15:00,
2013-04-29 02:30:00,43.8,15.0,29.64,NNE,30,3.0,-999.0,31,-99.99,,,0.00,weatherlink.com 1.10,2013-04-29 08:30:00,
2013-04-29 02:45:00,43.3,15.0,29.62,NNE,27,2.0,-999.0,32,-99.99,,,0.00,weatherlink.com 1.10,2013-04-29 08:45:00,
2013-04-29 03:00:00,41.9,15.0,29.63,NNE,27,2.0,-999.0,34,-99.99,,,0.00,weatherlink.com 1.10,2013-04-29 09:00:00,
2013-04-29 03:15:00,42.8,15.0,29.63,NNE,27,5.0,-999.0,32,-99.99,,,0.00,weatherlink.com 1.10,2013-04-29 09:15:00,
2013-04-29 03:30:00,41.9,15.0,29.63,NNE,21,5.0,-999.0,34,-99.99,,,0.00,weatherlink.com 1.10,2013-04-29 09:30:00,
2013-04-29 03:45:00,42.6,15.0,29.63,NNE,21,4.0,-999.0,33,-99.99,,,0.00,weatherlink.com 1.10,2013-04-29 09:45:00,
2013-04-29 04:00:00,41.8,16.0,29.63,NNE,14,4.0,-999.0,36,-99.99,,,0.00,weatherlink.com 1.10,2013-04-29 10:00:00,
2013-04-29 04:15:00,40.3,17.0,29.62,NNE,14,0.0,-999.0,39,-99.99,,,0.00,weatherlink.com 1.10,2013-04-29 10:15:00,
2013-04-29 04:30:00,39.6,16.0,29.63,NNE,14,0.0,-999.0,39,-99.99,,,0.00,weatherlink.com 1.10,2013-04-29 10:30:00,
2013-04-29 04:45:00,39.1,17.0,29.64,NNE,14,0.0,-999.0,41,-99.99,,,0.00,weatherlink.com 1.10,2013-04-29 10:45:00,
2013-04-29 05:01:00,37.8,17.0,29.65,NNE,14,0.0,-999.0,43,-99.99,,,0.00,weatherlink.com 1.10,2013-04-29 11:01:00,
2013-04-29 05:15:00,37.9,17.0,29.65,NNE,14,0.0,-999.0,42,-99.99,,,0.00,weatherlink.com 1.10,2013-04-29 11:15:00,
2013-04-29 05:30:00,37.2,17.0,29.67,NNE,14,2.0,-999.0,44,-99.99,,,0.00,weatherlink.com 1.10,2013-04-29 11:30:00,
2013-04-29 05:46:00,37.3,15.0,29.67,NNE,14,1.0,-999.0,41,-99.99,,,0.00,weatherlink.com 1.10,2013-04-29 11:46:00,
2013-04-29 06:01:00,37.0,16.0,29.67,NNE,14,4.0,-999.0,42,-99.99,,,0.00,weatherlink.com 1.10,2013-04-29 12:01:00,
2013-04-29 06:16:00,36.5,15.0,29.67,NNE,14,0.0,-999.0,42,-99.99,,,0.00,weatherlink.com 1.10,2013-04-29 12:16:00,
2013-04-29 06:31:00,35.8,16.0,29.68,NNE,14,2.0,-999.0,45,-99.99,,,0.00,weatherlink.com 1.10,2013-04-29 12:31:00,
2013-04-29 06:47:00,36.3,18.0,29.68,NNE,14,3.0,-999.0,47,-99.99,,,0.00,weatherlink.com 1.10,2013-04-29 12:47:00,
2013-04-29 07:01:00,37.8,18.0,29.67,NNE,20,0.0,-999.0,45,-99.99,,,0.00,weatherlink.com 1.10,2013-04-29 13:01:00,
2013-04-29 07:16:00,40.6,17.0,29.66,NNE,16,4.0,-999.0,39,-99.99,,,0.00,weatherlink.com 1.10,2013-04-29 13:16:00,
2013-04-29 07:32:00,43.1,18.0,29.70,NNE,16,1.0,-999.0,37,-99.99,,,0.00,weatherlink.com 1.10,2013-04-29 13:32:00,
2013-04-29 07:46:00,46.4,19.0,29.68,NNE,28,1.0,-999.0,34,-99.99,,,0.00,weatherlink.com 1.10,2013-04-29 13:46:00,
2013-04-29 08:02:00,49.2,18.0,29.66,NNE,24,2.0,-999.0,29,-99.99,,,0.00,weatherlink.com 1.10,2013-04-29 14:02:00,
2013-04-29 08:16:00,52.8,19.0,29.63,NE,41,2.0,-999.0,27,-99.99,,,0.00,weatherlink.com 1.10,2013-04-29 14:16:00,
2013-04-29 08:32:00,55.1,21.0,29.64,NE,34,4.0,-999.0,26,-99.99,,,0.00,weatherlink.com 1.10,2013-04-29 14:32:00,
2013-04-29 08:47:00,57.6,22.0,29.62,NE,34,1.0,-999.0,25,-99.99,,,0.00,weatherlink.com 1.10,2013-04-29 14:47:00,
2013-04-29 09:03:00,60.5,21.0,29.60,NNE,18,0.0,-999.0,22,-99.99,,,0.00,weatherlink.com 1.10,2013-04-29 15:03:00,
2013-04-29 09:17:00,62.4,23.0,29.59,NNE,18,1.0,-999.0,22,-99.99,,,0.00,weatherlink.com 1.10,2013-04-29 15:17:00,
2013-04-29 09:32:00,64.2,22.0,29.60,SSE,153,0.0,-999.0,20,-99.99,,,0.00,weatherlink.com 1.10,2013-04-29 15:32:00,
2013-04-29 09:49:00,64.5,20.0,29.59,SSW,210,2.0,-999.0,18,-99.99,,,0.00,weatherlink.com 1.10,2013-04-29 15:49:00,
2013-04-29 10:03:00,65.3,21.0,29.59,SSW,210,3.0,-999.0,18,-99.99,,,0.00,weatherlink.com 1.10,2013-04-29 16:03:00,
2013-04-29 10:18:00,67.1,22.0,29.58,South,184,3.0,-999.0,18,-99.99,,,0.00,weatherlink.com 1.10,2013-04-29 16:18:00,
2013-04-29 10:33:00,67.8,23.0,29.61,SSW,192,6.0,-999.0,18,-99.99,,,0.00,weatherlink.com 1.10,2013-04-29 16:33:00,
2013-04-29 10:48:00,69.3,23.0,29.59,South,181,0.0,-999.0,17,-99.99,,,0.00,weatherlink.com 1.10,2013-04-29 16:48:00,
2013-04-29 11:04:00,70.4,22.0,29.58,WSW,243,8.0,-999.0,16,-99.99,,,0.00,weatherlink.com 1.10,2013-04-29 17:04:00,
2013-04-29 11:19:00,72.7,22.0,29.57,SSW,207,3.0,-999.0,15,-99.99,,,0.00,weatherlink.com 1.10,2013-04-29 17:19:00,
2013-04-29 11:34:00,72.8,19.0,29.59,SW,226,5.0,-999.0,13,-99.99,,,0.00,weatherlink.com 1.10,2013-04-29 17:34:00,
2013-04-29 11:50:00,74.0,20.0,29.58,WSW,240,11.0,-999.0,13,-99.99,,,0.00,weatherlink.com 1.10,2013-04-29 17:50:00,
2013-04-29 12:05:00,75.4,19.0,29.57,WSW,238,7.0,-999.0,12,-99.99,,,0.00,weatherlink.com 1.10,2013-04-29 18:05:00,
2013-04-29 12:20:00,75.3,19.0,29.56,SW,227,8.0,-999.0,12,-99.99,,,0.00,weatherlink.com 1.10,2013-04-29 18:20:00,
2013-04-29 12:34:00,75.8,20.0,29.57,WSW,249,10.0,-999.0,12,-99.99,,,0.00,weatherlink.com 1.10,2013-04-29 18:34:00,
2013-04-29 12:50:00,77.2,19.0,29.56,SSW,206,9.0,-999.0,11,-99.99,,,0.00,weatherlink.com 1.10,2013-04-29 18:50:00,
2013-04-29 13:05:00,76.8,18.0,29.56,WSW,239,12.0,-999.0,11,-99.99,,,0.00,weatherlink.com 1.10,2013-04-29 19:05:00,
2013-04-29 13:20:00,77.2,19.0,29.55,WSW,255,7.0,-999.0,11,-99.99,,,0.00,weatherlink.com 1.10,2013-04-29 19:20:00,
2013-04-29 13:35:00,77.6,19.0,29.55,WNW,285,8.0,-999.0,11,-99.99,,,0.00,weatherlink.com 1.10,2013-04-29 19:35:00,
2013-04-29 13:50:00,78.3,20.0,29.54,SW,234,17.0,-999.0,11,-99.99,,,0.00,weatherlink.com 1.10,2013-04-29 19:50:00,
2013-04-29 14:05:00,79.0,18.0,29.53,West,268,11.0,-999.0,10,-99.99,,,0.00,weatherlink.com 1.10,2013-04-29 20:05:00,
2013-04-29 14:21:00,78.6,20.0,29.52,West,277,12.0,-999.0,11,-99.99,,,0.00,weatherlink.com 1.10,2013-04-29 20:21:00,
2013-04-29 14:36:00,79.4,18.0,29.52,WNW,283,10.0,-999.0,10,-99.99,,,0.00,weatherlink.com 1.10,2013-04-29 20:36:00,
2013-04-29 14:51:00,79.0,18.0,29.52,West,262,12.0,-999.0,10,-99.99,,,0.00,weatherlink.com 1.10,2013-04-29 20:51:00,
2013-04-29 15:07:00,79.9,19.0,29.51,WSW,248,6.0,-999.0,10,-99.99,,,0.00,weatherlink.com 1.10,2013-04-29 21:07:00,
2013-04-29 15:20:00,79.4,16.0,29.51,West,262,6.0,-999.0,9,-99.99,,,0.00,weatherlink.com 1.10,2013-04-29 21:20:00,
2013-04-29 15:37:00,79.4,16.0,29.52,West,276,13.0,-999.0,9,-99.99,,,0.00,weatherlink.com 1.10,2013-04-29 21:37:00,
2013-04-29 15:51:00,79.4,16.0,29.52,SW,224,12.0,-999.0,9,-99.99,,,0.00,weatherlink.com 1.10,2013-04-29 21:51:00,
2013-04-29 16:06:00,80.1,16.0,29.50,WNW,295,14.0,-999.0,9,-99.99,,,0.00,weatherlink.com 1.10,2013-04-29 22:06:00,
2013-04-29 16:21:00,79.9,16.0,29.49,WSW,257,15.0,-999.0,9,-99.99,,,0.00,weatherlink.com 1.10,2013-04-29 22:21:00,
2013-04-29 16:37:00,79.4,18.0,29.50,West,271,16.0,-999.0,10,-99.99,,,0.00,weatherlink.com 1.10,2013-04-29 22:37:00,
2013-04-29 16:52:00,79.6,16.0,29.50,WSW,257,16.0,-999.0,9,-99.99,,,0.00,weatherlink.com 1.10,2013-04-29 22:52:00,
2013-04-29 17:08:00,79.2,13.0,29.50,West,276,10.0,-999.0,8,-99.99,,,0.00,weatherlink.com 1.10,2013-04-29 23:08:00,
2013-04-29 17:21:00,79.4,16.0,29.49,WSW,252,11.0,-999.0,9,-99.99,,,0.00,weatherlink.com 1.10,2013-04-29 23:21:00,
2013-04-29 17:37:00,78.8,13.0,29.51,WSW,255,11.0,-999.0,8,-99.99,,,0.00,weatherlink.com 1.10,2013-04-29 23:37:00,
2013-04-29 17:52:00,79.2,13.0,29.50,WSW,256,15.0,-999.0,8,-99.99,,,0.00,weatherlink.com 1.10,2013-04-29 23:52:00,
2013-04-29 18:08:00,78.8,15.0,29.49,WNW,293,15.0,-999.0,9,-99.99,,,0.00,weatherlink.com 1.10,2013-04-30 00:08:00,
2013-04-29 18:23:00,78.6,15.0,29.49,WNW,283,16.0,-999.0,9,-99.99,,,0.00,weatherlink.com 1.10,2013-04-30 00:23:00,
2013-04-29 18:38:00,78.6,12.0,29.46,West,269,6.0,-999.0,8,-99.99,,,0.00,weatherlink.com 1.10,2013-04-30 00:38:00,
2013-04-29 18:52:00,78.1,15.0,29.45,West,264,7.0,-999.0,9,-99.99,,,0.00,weatherlink.com 1.10,2013-04-30 00:52:00,
2013-04-29 19:08:00,77.6,14.0,29.46,West,274,5.0,-999.0,9,-99.99,,,0.00,weatherlink.com 1.10,2013-04-30 01:08:00,
2013-04-29 19:23:00,76.3,16.0,29.46,West,281,5.0,-999.0,10,-99.99,,,0.00,weatherlink.com 1.10,2013-04-30 01:23:00,
2013-04-29 19:39:00,74.7,15.0,29.40,WNW,294,5.0,-999.0,10,-99.99,,,0.00,weatherlink.com 1.10,2013-04-30 01:39:00,
2013-04-29 19:53:00,73.7,14.0,29.41,WNW,300,1.0,-999.0,10,-99.99,,,0.00,weatherlink.com 1.10,2013-04-30 01:53:00,
2013-04-29 20:08:00,70.3,13.0,29.43,WNW,300,0.0,-999.0,11,-99.99,,,0.00,weatherlink.com 1.10,2013-04-30 02:08:00,
2013-04-29 20:23:00,67.9,13.0,29.44,WNW,300,0.0,-999.0,12,-99.99,,,0.00,weatherlink.com 1.10,2013-04-30 02:23:00,
2013-04-29 20:53:00,63.9,12.0,29.42,WNW,300,0.0,-999.0,13,-99.99,,,0.00,weatherlink.com 1.10,2013-04-30 02:53:00,
2013-04-29 21:08:00,61.6,13.0,29.44,WNW,300,0.0,-999.0,15,-99.99,,,0.00,weatherlink.com 1.10,2013-04-30 03:08:00,
2013-04-29 21:23:00,61.0,13.0,29.44,NW,319,0.0,-999.0,15,-99.99,,,0.00,weatherlink.com 1.10,2013-04-30 03:23:00,
2013-04-29 21:38:00,57.8,13.0,29.43,NW,319,0.0,-999.0,17,-99.99,,,0.00,weatherlink.com 1.10,2013-04-30 03:38:00,
2013-04-29 21:53:00,55.7,13.0,29.44,NW,319,4.0,-999.0,18,-99.99,,,0.00,weatherlink.com 1.10,2013-04-30 03:53:00,
2013-04-29 22:08:00,53.9,14.0,29.46,NW,319,4.0,-999.0,20,-99.99,,,0.00,weatherlink.com 1.10,2013-04-30 04:08:00,
2013-04-29 22:23:00,52.6,15.0,29.46,NW,321,4.0,-999.0,22,-99.99,,,0.00,weatherlink.com 1.10,2013-04-30 04:23:00,
2013-04-29 22:38:00,51.9,15.0,29.44,NW,322,4.0,-999.0,23,-99.99,,,0.00,weatherlink.com 1.10,2013-04-30 04:38:00,
2013-04-29 22:53:00,51.4,16.0,29.43,NW,323,5.0,-999.0,24,-99.99,,,0.00,weatherlink.com 1.10,2013-04-30 04:53:00,
2013-04-29 23:08:00,50.5,15.0,29.45,NW,323,5.0,-999.0,24,-99.99,,,0.00,weatherlink.com 1.10,2013-04-30 05:08:00,
2013-04-29 23:23:00,50.1,14.0,29.45,NW,323,3.0,-999.0,24,-99.99,,,0.00,weatherlink.com 1.10,2013-04-30 05:23:00,
2013-04-29 23:38:00,51.0,14.0,29.43,NW,325,0.0,-999.0,23,-99.99,,,0.00,weatherlink.com 1.10,2013-04-30 05:38:00,
2013-04-29 23:53:00,51.7,12.0,29.43,NNE,32,2.0,-999.0,20,-99.99,,,0.00,weatherlink.com 1.10,2013-04-30 05:53:00,